createdAt,value
2017-09-29T00:01:56.292Z,79.70
2017-09-29T00:04:23.769Z,79.71
2017-09-29T00:06:51.312Z,79.69
2017-09-29T00:09:18.789Z,79.79
2017-09-29T00:11:46.339Z,79.99
2017-09-29T00:14:13.807Z,80.23
2017-09-29T00:16:41.271Z,80.46
2017-09-29T00:19:08.756Z,80.52
2017-09-29T00:21:36.224Z,80.55
2017-09-29T00:24:03.698Z,80.58
2017-09-29T00:26:31.175Z,80.58
2017-09-29T00:28:58.676Z,80.55
2017-09-29T00:31:26.145Z,80.55
2017-09-29T00:33:53.622Z,80.58
2017-09-29T00:36:21.105Z,80.52
2017-09-29T00:38:48.588Z,80.43
2017-09-29T00:41:16.076Z,80.39
2017-09-29T00:43:44.074Z,80.49
2017-09-29T00:46:12.088Z,80.51
2017-09-29T00:48:40.457Z,80.48
2017-09-29T00:51:07.942Z,80.48
2017-09-29T00:53:35.423Z,80.44
2017-09-29T00:56:02.902Z,80.52
2017-09-29T00:58:30.407Z,80.60
2017-09-29T01:00:57.874Z,80.76
2017-09-29T01:03:25.375Z,80.82
2017-09-29T01:05:52.855Z,80.97
2017-09-29T01:08:20.327Z,81.04
2017-09-29T01:10:47.803Z,81.08
2017-09-29T01:13:15.280Z,81.09
2017-09-29T01:15:43.408Z,81.00
2017-09-29T01:18:10.927Z,80.93
2017-09-29T01:20:38.395Z,80.93
2017-09-29T01:23:05.876Z,80.95
2017-09-29T01:25:33.364Z,81.05
2017-09-29T01:28:00.839Z,81.07
2017-09-29T01:30:28.303Z,81.13
2017-09-29T01:32:55.791Z,81.18
2017-09-29T01:35:23.273Z,81.21
2017-09-29T01:37:50.750Z,81.26
2017-09-29T01:40:18.226Z,81.27
2017-09-29T01:42:45.687Z,81.29
2017-09-29T01:45:13.163Z,81.37
2017-09-29T01:47:40.631Z,81.36
2017-09-29T01:50:08.114Z,81.43
2017-09-29T01:52:35.589Z,81.44
2017-09-29T01:55:03.065Z,81.36
2017-09-29T01:57:30.544Z,81.26
2017-09-29T01:59:58.044Z,80.76
2017-09-29T02:02:25.578Z,80.87
2017-09-29T02:04:53.056Z,80.87
2017-09-29T02:07:20.543Z,81.22
2017-09-29T02:09:48.017Z,81.91
2017-09-29T02:12:15.505Z,82.19
2017-09-29T02:14:42.980Z,82.17
2017-09-29T02:17:10.451Z,82.27
2017-09-29T02:19:37.944Z,82.35
2017-09-29T02:22:05.407Z,82.32
2017-09-29T02:24:32.892Z,82.21
2017-09-29T02:27:00.357Z,82.15
2017-09-29T02:29:27.846Z,82.13
2017-09-29T02:31:55.325Z,82.12
2017-09-29T02:34:22.804Z,82.62
2017-09-29T02:36:50.330Z,82.98
2017-09-29T02:39:17.799Z,82.67
2017-09-29T02:41:45.287Z,83.11
2017-09-29T02:44:12.858Z,83.50
2017-09-29T02:46:40.335Z,83.32
2017-09-29T02:49:07.814Z,83.67
2017-09-29T02:51:35.289Z,83.74
2017-09-29T02:54:02.767Z,84.05
2017-09-29T02:56:38.634Z,84.13
2017-09-29T02:59:08.521Z,83.97
2017-09-29T03:01:38.722Z,83.97
2017-09-29T03:04:10.183Z,84.34
2017-09-29T03:06:37.652Z,84.64
2017-09-29T03:09:05.132Z,84.81
2017-09-29T03:11:32.708Z,84.94
2017-09-29T03:14:00.179Z,84.95
2017-09-29T03:16:27.666Z,84.93
2017-09-29T03:18:55.140Z,84.89
2017-09-29T03:21:22.635Z,84.83
2017-09-29T03:23:50.109Z,84.75
2017-09-29T03:26:17.603Z,84.70
2017-09-29T03:28:45.084Z,84.71
2017-09-29T03:31:12.567Z,84.68
2017-09-29T03:33:40.052Z,84.64
2017-09-29T03:36:07.527Z,84.64
2017-09-29T03:38:35.045Z,84.59
2017-09-29T03:41:02.599Z,84.60
2017-09-29T03:43:30.076Z,84.56
2017-09-29T03:45:57.582Z,84.54
2017-09-29T03:48:25.068Z,84.63
2017-09-29T03:50:58.080Z,84.74
2017-09-29T03:53:27.399Z,84.78
2017-09-29T03:55:56.966Z,84.67
2017-09-29T03:58:26.703Z,84.62
2017-09-29T04:00:54.245Z,84.53
2017-09-29T04:03:21.749Z,84.51
2017-09-29T04:05:49.225Z,84.43
2017-09-29T04:08:16.731Z,84.36
2017-09-29T04:10:44.306Z,84.33
2017-09-29T04:13:12.407Z,84.27
2017-09-29T04:15:39.874Z,84.19
2017-09-29T04:18:07.370Z,84.21
2017-09-29T04:20:34.905Z,84.22
2017-09-29T04:23:02.379Z,84.21
2017-09-29T04:25:29.855Z,84.21
2017-09-29T04:27:57.343Z,84.20
2017-09-29T04:30:24.836Z,84.23
2017-09-29T04:32:52.403Z,84.20
2017-09-29T04:35:20.732Z,84.19
2017-09-29T04:37:48.268Z,84.13
2017-09-29T04:40:15.767Z,84.11
2017-09-29T04:42:43.256Z,84.15
2017-09-29T04:45:10.804Z,84.15
2017-09-29T04:47:38.315Z,84.11
2017-09-29T04:50:05.797Z,84.13
2017-09-29T04:52:33.282Z,84.08
2017-09-29T04:55:00.773Z,84.12
2017-09-29T04:57:28.249Z,84.13
2017-09-29T04:59:55.768Z,84.11
2017-09-29T05:02:23.242Z,84.14
2017-09-29T05:04:51.279Z,84.19
2017-09-29T05:07:18.836Z,84.23
2017-09-29T05:09:46.303Z,84.31
2017-09-29T05:12:13.912Z,84.32
2017-09-29T05:14:41.474Z,84.38
2017-09-29T05:17:08.965Z,84.53
2017-09-29T05:19:36.462Z,84.55
2017-09-29T05:22:03.974Z,84.78
2017-09-29T05:24:31.581Z,84.89
2017-09-29T05:26:59.069Z,84.95
2017-09-29T05:29:26.595Z,84.92
2017-09-29T05:31:54.088Z,85.02
2017-09-29T05:34:21.578Z,85.15
2017-09-29T05:36:49.390Z,85.22
2017-09-29T05:39:16.871Z,85.26
2017-09-29T05:41:44.391Z,85.22
2017-09-29T05:44:11.901Z,85.08
2017-09-29T05:46:39.643Z,84.95
2017-09-29T05:49:07.137Z,84.87
2017-09-29T05:51:34.611Z,84.85
2017-09-29T05:54:02.103Z,84.91
2017-09-29T05:56:29.584Z,85.10
2017-09-29T05:58:57.104Z,85.06
2017-09-29T06:01:24.599Z,85.08
2017-09-29T06:03:52.125Z,85.06
2017-09-29T06:06:19.660Z,85.01
2017-09-29T06:08:47.160Z,84.97
2017-09-29T06:11:14.967Z,84.93
2017-09-29T06:13:42.592Z,84.92
2017-09-29T06:16:10.084Z,84.87
2017-09-29T06:20:59.619Z,84.83
2017-09-29T06:23:27.145Z,84.76
2017-09-29T06:25:54.615Z,84.69
2017-09-29T06:28:22.160Z,84.68
2017-09-29T06:30:49.635Z,84.61
2017-09-29T06:33:17.232Z,84.46
2017-09-29T06:35:44.781Z,84.30
2017-09-29T06:38:12.314Z,84.23
2017-09-29T06:40:39.802Z,84.11
2017-09-29T06:43:07.294Z,83.95
2017-09-29T06:45:34.786Z,83.81
2017-09-29T06:48:02.262Z,83.70
2017-09-29T06:50:29.997Z,83.56
2017-09-29T06:52:57.516Z,83.46
2017-09-29T06:55:25.027Z,83.44
2017-09-29T06:57:52.521Z,83.46
2017-09-29T07:00:19.996Z,83.62
2017-09-29T07:02:47.507Z,83.54
2017-09-29T07:05:15.016Z,83.54
2017-09-29T07:07:42.593Z,83.51
2017-09-29T07:10:10.092Z,83.44
2017-09-29T07:12:37.854Z,83.32
2017-09-29T07:15:05.333Z,83.15
2017-09-29T07:17:32.803Z,83.03
2017-09-29T07:20:00.337Z,82.95
2017-09-29T07:22:27.836Z,83.06
2017-09-29T07:24:59.202Z,83.01
2017-09-29T07:27:29.226Z,82.77
2017-09-29T07:29:59.229Z,82.68
2017-09-29T07:32:31.228Z,82.70
2017-09-29T07:34:58.726Z,82.72
2017-09-29T07:37:26.199Z,82.71
2017-09-29T07:39:53.849Z,82.69
2017-09-29T07:42:21.371Z,82.74
2017-09-29T07:44:48.862Z,82.70
2017-09-29T07:47:16.441Z,82.60
2017-09-29T07:49:43.954Z,82.50
2017-09-29T07:52:11.451Z,82.39
2017-09-29T07:54:38.926Z,82.26
2017-09-29T07:57:06.409Z,82.16
2017-09-29T07:59:33.965Z,82.12
2017-09-29T08:02:01.438Z,82.15
2017-09-29T08:04:28.959Z,82.27
2017-09-29T08:06:56.441Z,82.04
2017-09-29T08:09:23.952Z,81.85
2017-09-29T08:11:51.552Z,81.59
2017-09-29T08:14:19.046Z,81.23
2017-09-29T08:16:46.539Z,81.00
2017-09-29T08:19:14.051Z,80.96
2017-09-29T08:21:41.535Z,80.45
2017-09-29T08:24:09.037Z,79.91
2017-09-29T08:26:36.641Z,79.57
2017-09-29T08:29:04.118Z,79.24
2017-09-29T08:31:31.638Z,78.92
2017-09-29T08:33:59.114Z,78.44
2017-09-29T08:36:26.593Z,77.99
2017-09-29T08:38:55.081Z,77.45
2017-09-29T08:41:22.582Z,77.50
2017-09-29T08:43:50.083Z,76.81
2017-09-29T08:46:19.880Z,75.46
2017-09-29T08:48:47.402Z,75.16
2017-09-29T08:51:14.894Z,75.48
2017-09-29T08:53:42.435Z,75.34
2017-09-29T08:56:09.914Z,75.15
2017-09-29T08:58:37.412Z,74.57
2017-09-29T09:01:04.924Z,73.77
2017-09-29T09:03:32.471Z,72.25
2017-09-29T09:06:00.028Z,72.03
2017-09-29T09:08:27.586Z,72.41
2017-09-29T09:10:55.115Z,72.34
2017-09-29T09:13:22.746Z,72.21
2017-09-29T09:15:50.232Z,69.25
2017-09-29T09:18:17.699Z,68.78
2017-09-29T09:20:45.223Z,68.55
2017-09-29T09:23:12.720Z,68.00
2017-09-29T09:25:40.248Z,68.16
2017-09-29T09:28:07.720Z,68.83
2017-09-29T09:30:35.207Z,68.00
2017-09-29T09:33:02.696Z,68.23
2017-09-29T09:35:30.239Z,67.23
2017-09-29T09:37:57.724Z,66.74
2017-09-29T09:40:25.214Z,65.99
2017-09-29T09:42:52.736Z,66.65
2017-09-29T09:45:20.256Z,66.27
2017-09-29T09:47:47.761Z,67.09
2017-09-29T09:50:15.222Z,67.52
2017-09-29T09:52:42.693Z,67.89
2017-09-29T09:55:10.209Z,67.44
2017-09-29T09:57:37.679Z,67.29
2017-09-29T10:00:05.154Z,67.29
2017-09-29T10:02:32.662Z,66.18
2017-09-29T10:05:00.151Z,66.66
2017-09-29T10:07:27.620Z,65.33
2017-09-29T10:09:55.093Z,65.47
2017-09-29T10:12:22.586Z,64.79
2017-09-29T10:14:50.050Z,65.30
2017-09-29T10:17:18.239Z,65.07
2017-09-29T10:19:45.795Z,65.11
2017-09-29T10:22:13.337Z,65.30
2017-09-29T10:24:40.808Z,64.07
2017-09-29T10:27:08.274Z,63.95
2017-09-29T10:29:35.753Z,63.86
2017-09-29T10:32:03.228Z,63.13
2017-09-29T10:34:30.697Z,63.27
2017-09-29T10:36:58.176Z,62.47
2017-09-29T10:39:25.741Z,63.04
2017-09-29T10:41:53.215Z,62.25
2017-09-29T10:44:20.701Z,63.04
2017-09-29T10:46:48.171Z,63.03
2017-09-29T10:49:15.680Z,62.96
2017-09-29T10:51:43.167Z,62.04
2017-09-29T10:54:10.635Z,61.66
2017-09-29T10:56:38.114Z,60.80
2017-09-29T10:59:05.566Z,59.21
2017-09-29T11:01:33.067Z,58.12
2017-09-29T11:04:00.571Z,56.10
2017-09-29T11:06:28.060Z,56.29
2017-09-29T11:08:55.626Z,54.58
2017-09-29T11:11:23.097Z,53.72
2017-09-29T11:13:50.572Z,53.20
2017-09-29T11:16:18.100Z,51.79
2017-09-29T11:18:45.685Z,49.75
2017-09-29T11:21:13.185Z,49.26
2017-09-29T11:23:40.675Z,48.84
2017-09-29T11:26:08.239Z,48.14
2017-09-29T11:28:35.712Z,49.38
2017-09-29T11:31:03.211Z,50.35
2017-09-29T11:33:30.695Z,51.26
2017-09-29T11:35:58.259Z,52.33
2017-09-29T11:38:25.742Z,52.54
2017-09-29T11:40:53.198Z,52.49
2017-09-29T11:43:20.671Z,51.22
2017-09-29T11:45:48.140Z,50.48
2017-09-29T11:48:15.642Z,50.56
2017-09-29T11:50:43.113Z,50.93
2017-09-29T11:53:10.675Z,51.07
2017-09-29T11:55:38.157Z,50.64
2017-09-29T11:58:05.625Z,50.87
2017-09-29T12:00:33.115Z,50.91
2017-09-29T12:03:00.594Z,50.50
2017-09-29T12:05:28.076Z,49.26
2017-09-29T12:07:55.540Z,48.93
2017-09-29T12:10:23.004Z,48.78
2017-09-29T12:12:50.487Z,48.98
2017-09-29T12:15:17.972Z,49.03
2017-09-29T12:17:45.465Z,47.45
2017-09-29T12:20:12.927Z,46.44
2017-09-29T12:22:40.588Z,45.98
2017-09-29T12:25:08.099Z,46.03
2017-09-29T12:27:35.635Z,45.75
2017-09-29T12:30:03.123Z,46.09
2017-09-29T12:32:30.587Z,46.70
2017-09-29T12:34:58.065Z,47.79
2017-09-29T12:37:25.537Z,48.07
2017-09-29T12:39:53.014Z,48.10
2017-09-29T12:42:20.489Z,47.99
2017-09-29T12:44:47.990Z,47.71
2017-09-29T12:47:15.495Z,47.51
2017-09-29T12:49:42.983Z,47.56
2017-09-29T12:52:10.467Z,47.41
2017-09-29T12:54:37.939Z,47.61
2017-09-29T12:57:05.423Z,47.90
2017-09-29T12:59:32.904Z,48.07
2017-09-29T13:02:00.396Z,47.78
2017-09-29T13:04:27.901Z,47.01
2017-09-29T13:06:55.367Z,47.84
2017-09-29T13:09:22.846Z,48.01
2017-09-29T13:11:50.368Z,48.09
2017-09-29T13:14:17.905Z,47.93
2017-09-29T13:16:45.364Z,48.22
2017-09-29T13:19:12.860Z,48.12
2017-09-29T13:21:40.397Z,48.09
2017-09-29T13:24:07.881Z,47.83
2017-09-29T13:26:35.372Z,47.61
2017-09-29T13:29:04.124Z,47.08
2017-09-29T13:31:31.624Z,47.06
2017-09-29T13:33:59.289Z,46.57
2017-09-29T13:36:26.786Z,46.05
2017-09-29T13:38:54.288Z,45.03
2017-09-29T13:41:21.820Z,44.87
2017-09-29T13:43:50.090Z,44.80
2017-09-29T13:46:17.567Z,44.49
2017-09-29T13:48:45.022Z,44.33
2017-09-29T13:51:12.496Z,43.47
2017-09-29T13:53:40.033Z,43.58
2017-09-29T13:56:07.509Z,43.46
2017-09-29T13:58:34.978Z,43.17
2017-09-29T14:01:02.446Z,43.13
2017-09-29T14:03:29.941Z,43.53
2017-09-29T14:05:57.416Z,43.03
2017-09-29T14:08:24.900Z,43.23
2017-09-29T14:10:52.472Z,43.00
2017-09-29T14:13:20.055Z,42.78
2017-09-29T14:15:47.561Z,43.14
2017-09-29T14:18:15.030Z,43.53
2017-09-29T14:20:42.515Z,44.57
2017-09-29T14:23:09.995Z,44.85
2017-09-29T14:25:37.462Z,45.30
2017-09-29T14:28:04.958Z,45.63
2017-09-29T14:30:32.538Z,46.39
2017-09-29T14:33:00.047Z,47.02
2017-09-29T14:35:27.553Z,47.67
2017-09-29T14:37:55.151Z,47.99
2017-09-29T14:40:22.651Z,48.71
2017-09-29T14:42:50.132Z,49.33
2017-09-29T14:45:17.622Z,49.57
2017-09-29T14:47:45.141Z,49.87
2017-09-29T14:50:12.637Z,50.40
2017-09-29T14:52:40.112Z,50.44
2017-09-29T14:55:07.670Z,50.90
2017-09-29T14:57:35.326Z,50.72
2017-09-29T15:00:02.780Z,50.92
2017-09-29T15:02:30.312Z,51.03
2017-09-29T15:04:58.205Z,51.28
2017-09-29T15:07:25.677Z,51.85
2017-09-29T15:09:53.155Z,52.20
2017-09-29T15:12:20.628Z,52.43
2017-09-29T15:14:48.136Z,51.91
2017-09-29T15:17:15.609Z,51.88
2017-09-29T15:19:43.122Z,52.07
2017-09-29T15:22:10.688Z,52.63
2017-09-29T15:24:38.172Z,52.79
2017-09-29T15:27:05.671Z,52.92
2017-09-29T15:29:33.158Z,53.30
2017-09-29T15:32:00.650Z,53.75
2017-09-29T15:34:28.100Z,54.26
2017-09-29T15:36:55.703Z,54.73
2017-09-29T15:39:23.284Z,55.19
2017-09-29T15:41:50.849Z,55.47
2017-09-29T15:44:18.345Z,55.56
2017-09-29T15:46:45.874Z,55.54
2017-09-29T15:49:14.003Z,55.74
2017-09-29T15:51:41.499Z,56.01
2017-09-29T15:54:08.980Z,55.92
2017-09-29T15:56:36.452Z,56.07
2017-09-29T15:59:03.929Z,56.23
2017-09-29T16:01:31.452Z,56.53
2017-09-29T16:03:58.949Z,57.01
2017-09-29T16:06:26.423Z,57.11
2017-09-29T16:08:54.924Z,57.54
2017-09-29T16:11:23.209Z,57.63
2017-09-29T16:13:50.974Z,57.96
2017-09-29T16:16:18.504Z,58.28
2017-09-29T16:18:46.107Z,58.49
2017-09-29T16:21:13.594Z,58.76
2017-09-29T16:23:41.059Z,58.87
2017-09-29T16:26:08.551Z,59.03
2017-09-29T16:28:36.022Z,59.19
2017-09-29T16:31:03.559Z,59.26
2017-09-29T16:33:31.050Z,59.50
2017-09-29T16:35:58.576Z,59.71
2017-09-29T16:38:26.087Z,59.98
2017-09-29T16:40:53.550Z,60.05
2017-09-29T16:43:21.363Z,60.24
2017-09-29T16:45:48.816Z,60.52
2017-09-29T16:48:16.650Z,60.64
2017-09-29T16:50:44.134Z,60.72
2017-09-29T16:53:11.618Z,60.90
2017-09-29T16:55:39.106Z,61.11
2017-09-29T16:58:06.587Z,61.58
2017-09-29T17:00:34.059Z,61.71
2017-09-29T17:03:01.550Z,61.94
2017-09-29T17:05:29.302Z,61.91
2017-09-29T17:07:56.879Z,62.29
2017-09-29T17:10:24.357Z,62.47
2017-09-29T17:12:51.858Z,62.76
2017-09-29T17:15:19.347Z,62.97
2017-09-29T17:17:46.836Z,63.20
2017-09-29T17:20:14.333Z,63.27
2017-09-29T17:22:41.810Z,63.40
2017-09-29T17:25:09.307Z,63.61
2017-09-29T17:27:36.755Z,63.74
2017-09-29T17:30:04.727Z,63.74
2017-09-29T17:32:32.231Z,63.72
2017-09-29T17:34:59.973Z,63.69
2017-09-29T17:37:27.512Z,63.76
2017-09-29T17:39:54.971Z,63.81
2017-09-29T17:42:22.441Z,63.97
2017-09-29T17:44:49.974Z,63.99
2017-09-29T17:47:17.498Z,64.12
2017-09-29T17:49:44.960Z,64.53
2017-09-29T17:52:12.447Z,64.70
2017-09-29T17:54:39.986Z,64.86
2017-09-29T17:57:07.478Z,65.08
2017-09-29T17:59:35.001Z,65.13
2017-09-29T18:02:02.484Z,65.08
2017-09-29T18:04:29.985Z,65.24
2017-09-29T18:06:57.455Z,65.23
2017-09-29T18:09:24.998Z,65.26
2017-09-29T18:11:52.488Z,65.31
2017-09-29T18:14:20.342Z,65.28
2017-09-29T18:16:47.845Z,65.31
2017-09-29T18:19:15.532Z,65.31
2017-09-29T18:21:43.127Z,65.44
2017-09-29T18:24:10.596Z,65.56
2017-09-29T18:26:38.091Z,65.62
2017-09-29T18:29:05.581Z,65.80
2017-09-29T18:31:33.076Z,65.78
2017-09-29T18:34:00.586Z,65.81
2017-09-29T18:36:28.167Z,66.10
2017-09-29T18:38:55.629Z,66.05
2017-09-29T18:44:30.933Z,66.35
2017-09-29T18:47:00.238Z,66.52
2017-09-29T18:49:27.703Z,66.29
2017-09-29T18:51:55.198Z,66.28
2017-09-29T18:54:22.707Z,66.38
2017-09-29T18:56:50.191Z,66.22
2017-09-29T18:59:17.688Z,65.97
2017-09-29T19:01:45.161Z,66.21
2017-09-29T19:04:12.634Z,66.29
2017-09-29T19:06:40.128Z,66.53
2017-09-29T19:09:07.591Z,66.60
2017-09-29T19:11:35.078Z,66.41
2017-09-29T19:14:02.588Z,66.37
2017-09-29T19:16:30.057Z,66.36
2017-09-29T19:18:57.532Z,66.30
2017-09-29T19:21:25.129Z,66.33
2017-09-29T19:23:52.665Z,66.33
2017-09-29T19:26:20.158Z,66.35
2017-09-29T19:28:47.692Z,66.33
2017-09-29T19:31:15.172Z,66.50
2017-09-29T19:33:42.644Z,66.46
2017-09-29T19:36:10.122Z,66.45
2017-09-29T19:38:37.630Z,66.55
2017-09-29T19:41:05.105Z,66.67
2017-09-29T19:43:32.603Z,66.72
2017-09-29T19:46:00.067Z,66.54
2017-09-29T19:48:27.603Z,66.65
2017-09-29T19:50:55.071Z,66.63
2017-09-29T19:53:22.559Z,66.64
2017-09-29T19:55:50.016Z,66.74
2017-09-29T19:58:17.477Z,66.70
2017-09-29T20:00:45.039Z,66.81
2017-09-29T20:03:12.582Z,66.84
2017-09-29T20:05:40.074Z,66.53
2017-09-29T20:08:07.540Z,66.47
2017-09-29T20:10:35.052Z,66.65
2017-09-29T20:13:02.563Z,66.47
2017-09-29T20:15:30.036Z,66.58
2017-09-29T20:17:57.530Z,66.82
2017-09-29T20:20:24.997Z,66.87
2017-09-29T20:22:52.490Z,66.88
2017-09-29T20:25:19.974Z,67.08
2017-09-29T20:27:47.439Z,67.05
2017-09-29T20:30:14.908Z,67.15
2017-09-29T20:32:42.378Z,67.10
2017-09-29T20:35:09.935Z,67.07
2017-09-29T20:37:37.400Z,67.41
2017-09-29T20:40:04.886Z,67.63
2017-09-29T20:42:32.365Z,67.75
2017-09-29T20:44:59.840Z,67.81
2017-09-29T20:47:27.340Z,67.80
2017-09-29T20:49:54.820Z,68.06
2017-09-29T20:52:22.650Z,68.29
2017-09-29T20:54:50.170Z,68.23
2017-09-29T20:57:17.664Z,68.34
2017-09-29T20:59:45.186Z,68.46
2017-09-29T21:02:12.662Z,68.42
2017-09-29T21:04:40.127Z,68.48
2017-09-29T21:07:07.618Z,68.60
2017-09-29T21:09:35.092Z,68.78
2017-09-29T21:12:02.570Z,68.94
2017-09-29T21:14:30.072Z,68.99
2017-09-29T21:16:57.645Z,69.10
2017-09-29T21:19:25.315Z,69.22
2017-09-29T21:21:52.775Z,69.37
2017-09-29T21:24:20.259Z,69.60
2017-09-29T21:26:47.767Z,69.81
2017-09-29T21:29:15.328Z,69.98
2017-09-29T21:31:42.811Z,70.17
2017-09-29T21:34:10.278Z,70.49
2017-09-29T21:36:37.773Z,70.99
2017-09-29T21:39:05.248Z,71.06
2017-09-29T21:41:32.741Z,71.21
2017-09-29T21:44:00.269Z,71.38
2017-09-29T21:46:27.740Z,71.48
2017-09-29T21:48:55.210Z,71.62
2017-09-29T21:51:22.747Z,71.74
2017-09-29T21:53:50.219Z,71.92
2017-09-29T21:56:17.689Z,72.01
2017-09-29T21:58:45.170Z,72.17
2017-09-29T22:01:12.650Z,72.39
2017-09-29T22:03:40.243Z,72.65
2017-09-29T22:06:07.708Z,72.82
2017-09-29T22:08:35.192Z,73.01
2017-09-29T22:11:02.664Z,73.11
2017-09-29T22:13:30.136Z,73.26
2017-09-29T22:15:57.607Z,73.50
2017-09-29T22:18:25.062Z,73.81
2017-09-29T22:20:52.635Z,73.98
2017-09-29T22:23:20.090Z,74.08
2017-09-29T22:25:47.573Z,74.28
2017-09-29T22:28:15.040Z,74.65
2017-09-29T22:30:42.582Z,74.78
2017-09-29T22:33:10.051Z,74.92
2017-09-29T22:35:37.593Z,75.10
2017-09-29T22:38:05.155Z,75.24
2017-09-29T22:40:32.627Z,75.47
2017-09-29T22:43:00.155Z,75.74
2017-09-29T22:45:27.649Z,75.98
2017-09-29T22:47:55.148Z,76.19
2017-09-29T22:50:22.653Z,76.26
2017-09-29T22:52:50.190Z,76.36
2017-09-29T22:55:17.662Z,76.46
2017-09-29T22:57:45.509Z,76.66
2017-09-29T23:00:12.987Z,76.76
2017-09-29T23:02:40.491Z,76.80
2017-09-29T23:05:08.001Z,76.93
2017-09-29T23:07:35.463Z,77.02
2017-09-29T23:10:02.960Z,77.05
2017-09-29T23:12:30.463Z,77.21
2017-09-29T23:14:57.953Z,77.34
2017-09-29T23:17:25.497Z,77.48
2017-09-29T23:19:52.962Z,77.59
2017-09-29T23:22:20.494Z,77.60
2017-09-29T23:24:47.954Z,77.63
2017-09-29T23:27:15.504Z,77.60
2017-09-29T23:29:42.979Z,77.76
2017-09-29T23:32:11.349Z,77.89
2017-09-29T23:34:38.823Z,77.96
2017-09-29T23:37:06.294Z,78.12
2017-09-29T23:39:33.775Z,78.39
2017-09-29T23:42:01.240Z,78.58
2017-09-29T23:44:28.710Z,78.70
2017-09-29T23:46:56.208Z,78.97
2017-09-29T23:49:23.699Z,79.47
2017-09-29T23:51:51.174Z,79.57
2017-09-29T23:54:18.651Z,79.91
2017-09-29T23:56:46.120Z,80.11
2017-09-29T23:59:13.588Z,80.30
